<<    Dezember 2011    >>
Datum    Temp.       Tempmin      Tempmax    Taup.       Taup.min      Taup.max    Feuchte    Feuchtemin    Feuchtemax    Druck    Druckmin    Druckmax    Regen    Wind    Benmax  
  01.12.2011  8,9    3,8    01:50    12,7    14:01  6,3    0,8    01:35    10,7    23:02  84,0    71    18:30    97    21:29  1015,2    1007    23:59    1025    00:00  3,7  3,9  16,6  
  02.12.2011  8,1    3,7    22:29    12,6    04:46  6,0    2,6    23:43    10,2    00:05  87,9    60    05:08    98    09:55  1011,8    1005    03:33    1018    21:02  1,8  3,3  17,3  
  03.12.2011  7,4    4,0    00:00    9,9    15:30  4,9    0,7    08:27    8,4    18:20  84,8    62    08:27    94    21:40  1007,9    1003    14:36    1017    00:00  3,9  3,4  19,8  
  04.12.2011  8,7    6,7    23:59    9,8    12:46  5,3    1,7    13:38    7,6    07:07  79,7    57    13:38    95    23:59  1001,9    996    21:16    1006    00:00  1,9  2,7  16,2  
  05.12.2011  4,9    2,0    20:54    7,2    12:23  1,1    -3,3    16:18    6,5    01:28  78,1    49    14:50    98    23:59  1004,3    995    00:02    1008    18:01  1,8  4,9  23,8  
  06.12.2011  4,5    2,4    18:27    7,2    12:22  2,1    -1,0    15:20    3,7    19:20  85,7    58    12:48    98    00:00  1007,9    1006    04:16    1011    23:59  3,0  3,7  29,2  
  07.12.2011  6,1    4,1    00:00    8,7    14:23  2,2    -2,1    22:06    6,7    09:45  77,9    53    22:06    98    01:51  1006,2    1001    10:00    1014    23:45  2,7  6,0  36,7  
  08.12.2011  7,0    3,6    08:05    11,2    23:59  1,5    -1,6    00:34    6,7    21:42  68,0    56    00:00    83    21:18  1016,3    1005    23:45    1022    07:00  1,2  4,7  21,6  
  09.12.2011  6,6    2,2    20:52    11,8    00:35  1,3    -3,9    18:21    9,1    03:05  70,3    48    14:08    95    03:45  1009,3    1003    01:45    1013    19:15  4,6  4,5  31,7  
  10.12.2011  3,7    0,5    23:10    6,7    14:34  -1,4    -4,1    18:06    1,0    01:52  70,0    54    14:29    82    05:35  1016,4    1012    00:00    1020    21:31  0,0  2,6  15,5  
  11.12.2011  2,1    -1,6    03:06    5,1    21:18  -1,8    -4,0    02:55    0,0    15:19  76,0    60    21:07    91    09:16  1015,9    1008    23:59    1020    00:00  0,0  2,7  17,6  
  12.12.2011  6,3    3,6    21:13    8,1    13:12  3,7    -0,1    00:00    7,2    08:45  83,9    65    15:39    98    08:19  1007,8    1002    06:14    1013    19:14  3,9  3,4  17,3  
  13.12.2011  7,6    5,4    00:00    11,8    14:03  3,4    -0,1    03:21    6,5    12:54  75,5    60    14:30    97    17:45  1000,9    995    11:15    1011    00:00  2,8  5,7  28,8  
  14.12.2011  6,4    3,7    19:34    9,6    12:43  2,2    0,5    22:38    4,3    09:18  74,9    55    12:56    87    19:36  1001,7    995    08:14    1007    21:15  0,9  4,6  20,5  
  15.12.2011  5,8    3,2    03:36    7,8    13:47  0,6    -1,2    16:08    1,7    05:15  69,9    56    15:34    79    04:24  1004,6    1003    23:59    1007    00:00  0,9  3,9  19,4  
  16.12.2011  4,7    2,4    22:55    9,7    11:12  3,7    1,0    00:00    9,4    11:12  93,1    71    00:57    98    23:59  983,6    969    10:13    1003    00:00  19,9  7,5  31,7  
  17.12.2011  3,7    1,7    22:23    6,4    14:51  2,0    -0,4    22:23    3,6    14:51  89,2    74    12:33    98    00:00  1003,8    993    00:28    1009    18:13  1,2  4,4  17,6  
  18.12.2011  2,1    -0,6    22:59    4,3    13:33  1,5    -0,9    22:59    4,0    13:33  96,6    85    15:55    98    01:14  1011,3    1007    01:43    1016    23:58  4,5  3,3  16,9  
  19.12.2011  2,1    0,5    00:00    3,7    14:21  1,0    -2,5    22:58    3,4    14:21  93,2    69    22:20    98    00:00  1017,2    1014    23:43    1019    10:12  0,0  1,9  15,8  
  20.12.2011  2,7    0,6    01:54    4,8    14:43  2,2    -2,0    00:00    4,5    14:43  96,8    76    00:00    98    02:07  1011,1    1007    06:42    1018    22:57  11,4  3,4  24,8  
  21.12.2011  4,7    3,6    05:36    5,8    11:49  3,9    3,3    05:36    4,9    11:05  94,6    85    12:31    98    00:00  1018,5    1017    00:57    1022    22:42  0,0  1,8  16,9  
  22.12.2011  7,7    5,0    03:30    9,9    13:46  7,4    4,7    03:30    9,6    13:46  98,0    98    00:00    98    00:00  1022,2    1020    08:12    1025    21:28  7,6  2,8  19,4  
  23.12.2011  9,1    7,9    20:41    9,9    14:04  8,3    5,2    22:37    9,6    14:04  95,3    82    22:37    98    00:00  1020,3    1011    23:26    1025    00:00  0,0  2,0  11,2  
  24.12.2011  5,8    3,7    20:29    8,2    00:00  3,3    1,1    19:46    7,4    02:14  84,2    72    15:15    98    02:10  1023,7    1009    01:56    1032    21:11  3,9  5,9  27,4  
  25.12.2011  7,7    4,4    02:16    10,1    22:43  5,2    2,1    00:17    6,9    10:28  84,3    74    22:35    94    09:52  1031,7    1029    04:11    1035    20:41  0,0  2,5  15,8  
  26.12.2011  9,9    9,1    08:22    10,6    12:32  8,3    6,0    00:00    9,3    12:06  89,9    76    00:00    96    09:10  1035,6    1034    00:00    1037    14:56  0,0  2,2  13,0  
  27.12.2011  8,9    7,3    23:03    9,9    01:48  5,7    3,3    21:26    9,5    00:45  80,7    72    11:04    98    00:35  1036,0    1033    23:25    1038    11:10  0,0  1,2  11,5  
  28.12.2011  7,6    6,0    09:12    10,0    13:58  4,0    2,5    14:34    5,0    10:01  78,2    62    14:08    90    09:15  1025,9    1021    20:25    1034    00:00  0,0  3,7  16,6  
  29.12.2011  5,9    3,3    22:33    7,7    12:52  2,2    -0,7    13:39    6,0    22:06  77,8    58    12:55    98    22:46  1019,0    1008    23:40    1023    00:00  8,5  5,7  24,5  
  30.12.2011  4,3    2,1    05:07    5,9    13:32  2,4    0,6    04:55    4,8    01:26  87,6    75    03:55    98    00:00  1013,8    1007    03:10    1019    20:25  2,1  5,8  40,7  
  31.12.2011  5,9    2,8    00:00    10,5    23:59  5,3    1,2    00:00    10,2    23:59  96,0    86    01:41    98    06:43  1012,5    1011    06:09    1016    00:12  7,6  2,0  10,4  
 
  Gesamt  6,0  -1,6            12,7            3,4  -4,1            10,7            83,9  48            98            1013,4  969            1038            99,5  3,7  40,7  
 
  Mittelwert  6,0  3,5            8,6            3,4  0,3            6,4            83,9  67,1            95,0            1013,4  1007,3            1018,8            3,2  3,7  20,8  
  Minimum  2,1  -1,6            3,7            -1,8  -4,1            0,0            68,0  48,0            79,0            983,6  969,0            1003,0            0,0  1,2  10,4  
  Maximum  9,9  9,1            12,7            8,3  6,0            10,7            98,0  98,0            98,0            1036,0  1034,0            1038,0            19,9  7,5  40,7  

  Heie Tage    Tmax >=30C     0  
  Sommertage    Tmax >=25C     0  
  Warme Tage    Tmax >=20C     0  
  Kalte Tage    Tmax  <10C     22  
  Frosttage    Tmin  <0C     2  
  Eistage    Tmax  <0C     0  
  Regentage > 0 mm    22  
  Regentage > 2 mm    15  
  Regentage > 10 mm    2  
  Regentage > 20 mm    0